createdAt,value
2023-01-02T00:00:58.765Z,11.00
2023-01-02T00:03:25.422Z,10.50
2023-01-02T00:05:51.983Z,11.00
2023-01-02T00:08:18.439Z,10.00
2023-01-02T00:10:45.028Z,9.40
2023-01-02T00:13:11.793Z,9.70
2023-01-02T00:15:38.675Z,9.90
2023-01-02T00:18:05.566Z,10.60
2023-01-02T00:20:32.072Z,11.10
2023-01-02T00:22:58.527Z,10.70
2023-01-02T00:25:24.988Z,11.30
2023-01-02T00:27:51.446Z,10.60
2023-01-02T00:30:18.096Z,10.90
2023-01-02T00:32:44.536Z,11.90
2023-01-02T00:35:10.941Z,11.10
2023-01-02T00:37:37.683Z,10.40
2023-01-02T00:40:05.697Z,10.00
2023-01-02T00:42:32.114Z,9.40
2023-01-02T00:44:58.652Z,9.80
2023-01-02T00:47:25.154Z,9.60
2023-01-02T00:49:51.579Z,9.40
2023-01-02T00:52:18.059Z,9.70
2023-01-02T00:54:44.658Z,9.00
2023-01-02T00:57:11.169Z,8.80
2023-01-02T00:59:37.590Z,8.70
2023-01-02T01:02:04.148Z,9.30
2023-01-02T01:04:36.396Z,9.00
2023-01-02T01:07:03.607Z,8.00
2023-01-02T01:09:30.426Z,8.60
2023-01-02T01:11:56.805Z,9.10
2023-01-02T01:14:23.758Z,9.80
2023-01-02T01:16:50.393Z,9.30
2023-01-02T01:19:16.964Z,9.50
2023-01-02T01:21:43.414Z,14.40
2023-01-02T01:24:09.930Z,13.90
2023-01-02T01:26:36.317Z,13.70
2023-01-02T01:29:03.285Z,12.00
2023-01-02T01:31:29.713Z,11.40
2023-01-02T01:33:56.226Z,11.00
2023-01-02T01:36:24.633Z,9.60
2023-01-02T01:38:51.330Z,10.30
2023-01-02T01:41:22.731Z,10.20
2023-01-02T01:43:52.766Z,9.50
2023-01-02T01:46:43.472Z,8.30
2023-01-02T01:49:25.719Z,8.70
2023-01-02T01:52:08.066Z,9.50
2023-01-02T01:54:44.421Z,9.00
2023-01-02T01:57:34.326Z,8.10
2023-01-02T02:00:01.896Z,7.90
2023-01-02T02:02:32.481Z,7.00
2023-01-02T02:05:05.492Z,6.60
2023-01-02T02:07:39.495Z,6.60
2023-01-02T02:12:38.099Z,7.30
2023-01-02T02:15:10.271Z,7.40
2023-01-02T02:17:52.410Z,7.70
2023-01-02T02:20:48.315Z,7.60
2023-01-02T02:23:48.122Z,7.20
2023-01-02T02:26:53.257Z,7.40
2023-01-02T02:29:47.558Z,7.20
2023-01-02T02:32:17.282Z,6.90
2023-01-02T02:35:01.906Z,7.70
2023-01-02T02:38:04.631Z,7.60
2023-01-02T02:40:55.713Z,6.90
2023-01-02T02:43:30.492Z,7.00
2023-01-02T02:46:33.094Z,7.40
2023-01-02T02:49:15.090Z,7.40
2023-01-02T02:51:52.412Z,7.50
2023-01-02T02:54:31.403Z,7.60
2023-01-02T02:57:00.478Z,8.10
2023-01-02T02:59:28.509Z,9.40
2023-01-02T03:01:55.054Z,8.80
2023-01-02T03:04:23.187Z,8.60
2023-01-02T03:07:10.529Z,8.50
2023-01-02T03:10:34.143Z,8.40
2023-01-02T03:13:41.725Z,8.10
2023-01-02T03:16:29.988Z,8.60
2023-01-02T03:19:07.540Z,9.00
2023-01-02T03:21:41.781Z,8.20
2023-01-02T03:24:13.938Z,8.50
2023-01-02T03:26:46.706Z,8.40
2023-01-02T03:29:20.580Z,8.20
2023-01-02T03:31:54.114Z,7.80
2023-01-02T03:34:27.699Z,7.90
2023-01-02T03:37:01.733Z,9.30
2023-01-02T03:39:35.396Z,8.20
2023-01-02T03:42:14.551Z,8.00
2023-01-02T03:44:48.860Z,8.20
2023-01-02T03:47:41.454Z,8.30
2023-01-02T03:50:44.366Z,8.90
2023-01-02T03:53:11.278Z,7.90
2023-01-02T03:55:43.738Z,8.60
2023-01-02T03:58:33.541Z,8.30
2023-01-02T04:01:21.828Z,9.80
2023-01-02T04:04:00.208Z,13.80
2023-01-02T04:06:37.599Z,11.70
2023-01-02T04:09:10.839Z,9.50
2023-01-02T04:11:42.411Z,10.00
2023-01-02T04:14:30.796Z,9.50
2023-01-02T04:17:02.281Z,10.00
2023-01-02T04:19:38.238Z,10.60
2023-01-02T04:22:16.531Z,10.20
2023-01-02T04:24:53.913Z,10.10
2023-01-02T04:27:28.340Z,9.40
2023-01-02T04:29:56.591Z,9.90
2023-01-02T04:32:42.412Z,10.30
2023-01-02T04:35:17.331Z,11.00
2023-01-02T04:37:45.500Z,10.30
2023-01-02T04:40:24.842Z,11.60
2023-01-02T04:42:52.105Z,10.40
2023-01-02T04:45:19.017Z,9.90
2023-01-02T04:47:48.240Z,11.90
2023-01-02T04:50:14.836Z,12.80
2023-01-02T04:52:41.531Z,13.40
2023-01-02T04:55:09.768Z,14.50
2023-01-02T04:57:37.307Z,17.00
2023-01-02T05:00:06.331Z,18.10
2023-01-02T05:02:37.984Z,14.30
2023-01-02T05:05:06.586Z,14.20
2023-01-02T05:07:34.720Z,13.70
2023-01-02T05:10:01.283Z,13.30
2023-01-02T05:12:27.853Z,13.90
2023-01-02T05:14:54.335Z,12.40
2023-01-02T05:17:20.717Z,11.40
2023-01-02T05:19:47.215Z,11.60
2023-01-02T05:22:32.531Z,10.20
2023-01-02T05:24:59.046Z,8.50
2023-01-02T05:27:25.566Z,9.00
2023-01-02T05:29:52.053Z,9.00
2023-01-02T05:32:18.507Z,8.00
2023-01-02T05:34:45.001Z,7.90
2023-01-02T05:37:11.480Z,7.70
2023-01-02T05:39:37.873Z,7.60
2023-01-02T05:42:04.516Z,8.00
2023-01-02T05:44:30.916Z,8.40
2023-01-02T05:46:57.369Z,6.80
2023-01-02T05:49:23.989Z,7.00
2023-01-02T05:51:50.363Z,7.30
2023-01-02T05:54:16.899Z,7.70
2023-01-02T05:56:43.380Z,7.50
2023-01-02T05:59:10.021Z,7.60
2023-01-02T06:01:36.649Z,7.20
2023-01-02T06:04:03.245Z,9.30
2023-01-02T06:06:37.114Z,11.60
2023-01-02T06:09:05.985Z,12.60
2023-01-02T06:11:33.049Z,11.30
2023-01-02T06:13:59.789Z,10.30
2023-01-02T06:16:26.764Z,9.50
2023-01-02T06:18:53.547Z,10.20
2023-01-02T06:21:22.158Z,13.00
2023-01-02T06:23:55.944Z,15.00
2023-01-02T06:26:24.186Z,11.10
2023-01-02T06:28:53.500Z,9.20
2023-01-02T06:31:23.320Z,7.80
2023-01-02T06:33:59.206Z,7.60
2023-01-02T06:36:30.149Z,7.30
2023-01-02T06:38:58.349Z,6.90
2023-01-02T06:41:25.044Z,7.00
2023-01-02T06:43:52.872Z,6.90
2023-01-02T06:46:22.851Z,6.40
2023-01-02T06:48:50.531Z,6.30
2023-01-02T06:51:21.044Z,7.50
2023-01-02T06:53:48.305Z,7.50
2023-01-02T06:56:18.425Z,7.70
2023-01-02T06:58:44.951Z,8.00
2023-01-02T07:01:16.612Z,7.30
2023-01-02T07:03:43.484Z,7.20
2023-01-02T07:06:17.126Z,7.80
2023-01-02T07:08:43.995Z,7.50
2023-01-02T07:11:12.600Z,9.50
2023-01-02T07:13:41.291Z,7.40
2023-01-02T07:16:12.430Z,7.60
2023-01-02T07:18:39.111Z,7.50
2023-01-02T07:21:08.245Z,7.60
2023-01-02T07:23:35.393Z,8.20
2023-01-02T07:26:04.799Z,8.30
2023-01-02T07:28:33.070Z,10.10
2023-01-02T07:31:02.831Z,10.00
2023-01-02T07:33:31.009Z,9.00
2023-01-02T07:36:03.308Z,8.80
2023-01-02T07:38:30.884Z,10.20
2023-01-02T07:40:57.606Z,12.90
2023-01-02T07:43:25.345Z,12.90
2023-01-02T07:45:52.270Z,15.60
2023-01-02T07:48:19.265Z,13.40
2023-01-02T07:50:46.987Z,10.30
2023-01-02T07:53:13.512Z,8.70
2023-01-02T07:55:39.996Z,7.90
2023-01-02T07:58:06.449Z,8.40
2023-01-02T08:00:32.913Z,8.80
2023-01-02T08:03:00.739Z,8.40
2023-01-02T08:05:27.169Z,8.00
2023-01-02T08:07:53.632Z,8.00
2023-01-02T08:10:20.104Z,9.10
2023-01-02T08:12:46.599Z,9.60
2023-01-02T08:15:13.074Z,9.80
2023-01-02T08:17:41.539Z,8.90
2023-01-02T08:20:10.405Z,8.50
2023-01-02T08:22:37.652Z,7.90
2023-01-02T08:25:04.943Z,7.80
2023-01-02T08:27:31.704Z,9.30
2023-01-02T08:29:58.217Z,8.90
2023-01-02T08:32:25.150Z,7.50
2023-01-02T08:34:51.564Z,9.20
2023-01-02T08:37:18.130Z,8.60
2023-01-02T08:39:44.575Z,7.60
2023-01-02T08:42:11.059Z,8.10
2023-01-02T08:44:40.451Z,7.30
2023-01-02T08:47:06.898Z,7.00
2023-01-02T08:49:33.355Z,6.60
2023-01-02T08:51:59.783Z,7.20
2023-01-02T08:54:26.300Z,7.20
2023-01-02T08:56:52.775Z,7.00
2023-01-02T08:59:19.710Z,7.50
2023-01-02T09:01:46.317Z,7.00
2023-01-02T09:04:13.612Z,7.40
2023-01-02T09:06:41.885Z,6.30
2023-01-02T09:09:12.418Z,7.70
2023-01-02T09:11:52.297Z,6.60
2023-01-02T09:14:21.194Z,6.70
2023-01-02T09:16:48.940Z,6.80
2023-01-02T09:19:15.365Z,6.30
2023-01-02T09:21:41.980Z,5.70
2023-01-02T09:24:09.626Z,5.50
2023-01-02T09:26:42.399Z,5.40
2023-01-02T09:29:11.533Z,5.40
2023-01-02T09:31:39.217Z,6.30
2023-01-02T09:34:06.315Z,7.00
2023-01-02T09:36:33.005Z,6.30
2023-01-02T09:39:01.501Z,5.90
2023-01-02T09:41:35.947Z,6.60
2023-01-02T09:44:18.016Z,6.60
2023-01-02T09:47:00.587Z,5.40
2023-01-02T09:49:57.936Z,5.10
2023-01-02T09:52:56.787Z,5.00
2023-01-02T09:55:53.332Z,5.30
2023-01-02T09:58:40.534Z,5.50
2023-01-02T10:01:22.053Z,5.40
2023-01-02T10:04:16.737Z,5.70
2023-01-02T10:06:56.923Z,5.20
2023-01-02T10:09:50.415Z,5.10
2023-01-02T10:12:30.335Z,4.90
2023-01-02T10:15:02.884Z,4.90
2023-01-02T10:17:37.243Z,4.40
2023-01-02T10:20:23.817Z,4.30
2023-01-02T10:22:57.513Z,5.10
2023-01-02T10:25:36.313Z,4.70
2023-01-02T10:28:30.522Z,6.00
2023-01-02T10:31:07.889Z,4.90
2023-01-02T10:33:57.084Z,5.00
2023-01-02T10:36:29.110Z,5.10
2023-01-02T10:39:25.591Z,5.10
2023-01-02T10:41:57.278Z,6.00
2023-01-02T10:44:35.367Z,10.50
2023-01-02T10:47:24.551Z,6.80
2023-01-02T10:49:53.038Z,5.90
2023-01-02T10:52:32.170Z,4.70
2023-01-02T10:55:00.654Z,4.80
2023-01-02T10:57:43.869Z,5.10
2023-01-02T11:00:28.510Z,5.10
2023-01-02T11:02:59.994Z,5.80
2023-01-02T11:05:30.667Z,4.60
2023-01-02T11:07:58.313Z,4.00
2023-01-02T11:10:34.880Z,4.20
2023-01-02T11:13:14.994Z,4.20
2023-01-02T11:16:03.103Z,4.30
2023-01-02T11:18:35.421Z,4.30
2023-01-02T11:21:06.032Z,5.10
2023-01-02T11:23:44.383Z,6.00
2023-01-02T11:26:21.256Z,9.70
2023-01-02T11:28:51.770Z,5.30
2023-01-02T11:31:19.705Z,4.60
2023-01-02T11:33:47.724Z,4.10
2023-01-02T11:36:20.202Z,4.00
2023-01-02T11:38:54.137Z,3.80
2023-01-02T11:42:11.889Z,4.40
2023-01-02T11:45:01.441Z,4.30
2023-01-02T11:47:49.550Z,3.80
2023-01-02T11:50:34.775Z,4.10
2023-01-02T11:53:29.087Z,5.40
2023-01-02T11:56:17.710Z,5.70
2023-01-02T11:59:04.825Z,7.40
2023-01-02T12:02:25.400Z,6.30
2023-01-02T12:04:52.012Z,9.20
2023-01-02T12:07:45.186Z,8.00
2023-01-02T12:10:52.956Z,5.80
2023-01-02T12:13:54.824Z,5.10
2023-01-02T12:16:50.491Z,4.50
2023-01-02T12:19:29.068Z,4.40
2023-01-02T12:22:38.455Z,4.70
2023-01-02T12:25:42.711Z,5.10
2023-01-02T12:28:47.515Z,4.00
2023-01-02T12:31:36.084Z,3.90
2023-01-02T12:34:58.829Z,5.70
2023-01-02T12:37:53.535Z,4.60
2023-01-02T12:41:06.519Z,4.50
2023-01-02T12:44:12.307Z,4.40
2023-01-02T12:47:14.476Z,4.40
2023-01-02T12:50:21.299Z,4.40
2023-01-02T12:53:32.473Z,4.50
2023-01-02T12:56:32.937Z,5.40
2023-01-02T12:59:21.186Z,5.70
2023-01-02T13:02:20.946Z,4.90
2023-01-02T13:05:07.539Z,5.70
2023-01-02T13:07:59.293Z,4.40
2023-01-02T13:10:29.174Z,7.80
2023-01-02T13:12:59.021Z,6.10
2023-01-02T13:15:37.449Z,5.60
2023-01-02T13:18:23.644Z,4.20
2023-01-02T13:21:21.121Z,4.20
2023-01-02T13:23:48.400Z,5.00
2023-01-02T13:26:19.767Z,4.50
2023-01-02T13:29:10.232Z,5.60
2023-01-02T13:31:48.841Z,5.20
2023-01-02T13:34:23.318Z,3.90
2023-01-02T13:36:59.333Z,4.10
2023-01-02T13:39:45.849Z,4.40
2023-01-02T13:42:59.530Z,4.30
2023-01-02T13:45:31.189Z,3.70
2023-01-02T13:48:22.976Z,4.20
2023-01-02T13:51:00.707Z,4.70
2023-01-02T13:53:51.113Z,4.00
2023-01-02T13:56:27.205Z,4.10
2023-01-02T13:59:42.701Z,6.20
2023-01-02T14:02:20.846Z,13.50
2023-01-02T14:04:47.656Z,15.50
2023-01-02T14:07:26.313Z,19.40
2023-01-02T14:10:28.234Z,13.80
2023-01-02T14:13:05.724Z,9.20
2023-01-02T14:15:55.586Z,11.50
2023-01-02T14:18:30.639Z,9.50
2023-01-02T14:20:57.635Z,9.10
2023-01-02T14:23:37.069Z,11.70
2023-01-02T14:26:03.724Z,26.10
2023-01-02T14:28:36.955Z,19.60
2023-01-02T14:31:24.080Z,37.40
2023-01-02T14:33:55.694Z,31.00
2023-01-02T14:36:40.102Z,28.40
2023-01-02T14:39:11.380Z,18.80
2023-01-02T14:42:09.147Z,19.80
2023-01-02T14:44:44.909Z,10.70
2023-01-02T14:47:18.720Z,8.80
2023-01-02T14:49:56.560Z,7.70
2023-01-02T14:52:33.959Z,7.10
2023-01-02T14:55:20.198Z,6.20
2023-01-02T14:57:50.719Z,6.70
2023-01-02T15:00:41.719Z,8.40
2023-01-02T15:03:30.482Z,12.30
2023-01-02T15:06:08.949Z,16.30
2023-01-02T15:08:44.939Z,18.70
2023-01-02T15:11:36.934Z,22.30
2023-01-02T15:14:06.070Z,17.30
2023-01-02T15:16:44.880Z,23.80
2023-01-02T15:19:27.501Z,47.50
2023-01-02T15:21:55.251Z,54.20
2023-01-02T15:24:34.228Z,55.30
2023-01-02T15:27:22.909Z,43.50
2023-01-02T15:29:55.171Z,53.90
2023-01-02T15:32:29.165Z,30.20
2023-01-02T15:35:24.141Z,36.00
2023-01-02T15:37:51.545Z,35.40
2023-01-02T15:40:28.633Z,37.50
2023-01-02T15:43:20.067Z,26.50
2023-01-02T15:45:51.440Z,23.00
2023-01-02T15:48:28.549Z,23.60
2023-01-02T15:50:59.079Z,19.20
2023-01-02T15:53:28.906Z,31.00
2023-01-02T15:55:57.701Z,28.20
2023-01-02T15:58:31.438Z,34.30
2023-01-02T16:01:22.011Z,22.70
2023-01-02T16:04:01.518Z,32.20
2023-01-02T16:06:35.588Z,31.20
2023-01-02T16:09:05.613Z,30.50
2023-01-02T16:11:44.647Z,40.20
2023-01-02T16:14:20.667Z,36.70
2023-01-02T16:17:02.388Z,33.40
2023-01-02T16:19:39.317Z,33.50
2023-01-02T16:22:12.138Z,34.60
2023-01-02T16:24:53.205Z,29.10
2023-01-02T16:27:30.892Z,21.10
2023-01-02T16:29:58.247Z,26.40
2023-01-02T16:32:32.955Z,23.90
2023-01-02T16:35:15.031Z,30.40
2023-01-02T16:37:59.752Z,33.40
2023-01-02T16:41:00.908Z,34.40
2023-01-02T16:43:31.083Z,38.10
2023-01-02T16:45:59.077Z,29.20
2023-01-02T16:48:31.884Z,33.60
2023-01-02T16:50:59.601Z,31.00
2023-01-02T16:53:31.324Z,32.50
2023-01-02T16:55:59.054Z,30.10
2023-01-02T16:58:26.733Z,32.30
2023-01-02T17:00:55.767Z,31.10
2023-01-02T17:03:27.602Z,30.20
2023-01-02T17:06:03.068Z,26.60
2023-01-02T17:08:32.166Z,25.20
2023-01-02T17:11:00.106Z,26.80
2023-01-02T17:13:28.231Z,28.10
2023-01-02T17:15:56.022Z,27.90
2023-01-02T17:18:23.527Z,20.40
2023-01-02T17:20:50.326Z,16.90
2023-01-02T17:23:21.170Z,18.60
2023-01-02T17:25:48.089Z,17.10
2023-01-02T17:28:15.232Z,21.70
2023-01-02T17:30:44.181Z,24.60
2023-01-02T17:33:11.629Z,31.10
2023-01-02T17:35:38.731Z,36.10
2023-01-02T17:38:05.229Z,30.70
2023-01-02T17:40:31.857Z,37.20
2023-01-02T17:42:58.354Z,31.60
2023-01-02T17:45:24.907Z,24.20
2023-01-02T17:48:07.391Z,17.80
2023-01-02T17:50:36.954Z,15.10
2023-01-02T17:53:03.426Z,18.00
2023-01-02T17:55:29.861Z,21.40
2023-01-02T17:57:56.357Z,17.40
2023-01-02T18:00:23.945Z,31.50
2023-01-02T18:02:52.648Z,54.70
2023-01-02T18:05:19.333Z,66.90
2023-01-02T18:07:45.963Z,60.10
2023-01-02T18:10:14.820Z,47.60
2023-01-02T18:12:46.708Z,22.10
2023-01-02T18:15:15.672Z,17.20
2023-01-02T18:17:42.721Z,14.70
2023-01-02T18:20:18.410Z,15.90
2023-01-02T18:22:50.123Z,30.60
2023-01-02T18:25:29.790Z,19.40
2023-01-02T18:28:01.342Z,16.40
2023-01-02T18:30:28.364Z,16.00
2023-01-02T18:33:13.134Z,21.80
2023-01-02T18:38:35.724Z,20.20
2023-01-02T18:41:26.388Z,30.90
2023-01-02T18:44:04.782Z,23.90
2023-01-02T18:47:03.722Z,20.10
2023-01-02T18:49:27.230Z,39.90
2023-01-02T18:52:11.473Z,37.70
2023-01-02T18:54:44.566Z,42.40
2023-01-02T18:57:21.406Z,36.40
2023-01-02T18:59:51.138Z,29.60
2023-01-02T19:02:44.523Z,25.70
2023-01-02T19:05:40.007Z,25.90
2023-01-02T19:08:21.322Z,15.70
2023-01-02T19:10:55.134Z,14.90
2023-01-02T19:13:27.965Z,18.90
2023-01-02T19:15:58.849Z,15.70
2023-01-02T19:18:38.952Z,15.60
2023-01-02T19:21:08.462Z,13.10
2023-01-02T19:24:05.625Z,14.00
2023-01-02T19:26:38.501Z,14.80
2023-01-02T19:29:14.849Z,15.00
2023-01-02T19:32:18.455Z,13.40
2023-01-02T19:34:50.806Z,10.90
2023-01-02T19:37:31.552Z,10.80
2023-01-02T19:40:06.332Z,11.90
2023-01-02T19:42:35.390Z,15.50
2023-01-02T19:45:06.269Z,13.50
2023-01-02T19:47:36.193Z,13.50
2023-01-02T19:50:08.305Z,13.30
2023-01-02T19:52:35.400Z,14.10
2023-01-02T19:55:03.372Z,12.40
2023-01-02T19:57:30.031Z,11.50
2023-01-02T19:59:58.973Z,11.60
2023-01-02T20:02:27.746Z,12.70
2023-01-02T20:04:56.333Z,13.90
2023-01-02T20:07:24.990Z,16.60
2023-01-02T20:09:52.711Z,15.70
2023-01-02T20:12:29.933Z,18.20
2023-01-02T20:15:07.084Z,17.40
2023-01-02T20:17:35.579Z,18.80
2023-01-02T20:20:03.201Z,20.30
2023-01-02T20:22:31.004Z,22.00
2023-01-02T20:24:58.020Z,17.70
2023-01-02T20:27:25.649Z,17.00
2023-01-02T20:29:55.133Z,14.70
2023-01-02T20:32:23.538Z,15.10
2023-01-02T20:34:51.393Z,15.30
2023-01-02T20:37:21.018Z,12.70
2023-01-02T20:39:52.393Z,13.40
2023-01-02T20:42:20.962Z,19.70
2023-01-02T20:44:48.184Z,22.10
2023-01-02T20:47:15.119Z,19.80
2023-01-02T20:49:41.714Z,13.30
2023-01-02T20:52:09.210Z,12.70
2023-01-02T20:54:36.307Z,13.50
2023-01-02T20:57:02.995Z,12.30
2023-01-02T20:59:29.564Z,11.80
2023-01-02T21:01:56.198Z,11.50
2023-01-02T21:04:29.227Z,11.70
2023-01-02T21:07:00.909Z,11.20
2023-01-02T21:09:27.401Z,12.10
2023-01-02T21:11:54.016Z,12.30
2023-01-02T21:14:20.434Z,11.60
2023-01-02T21:16:46.973Z,11.60
2023-01-02T21:19:13.434Z,12.10
2023-01-02T21:21:40.029Z,13.50
2023-01-02T21:24:07.410Z,15.30
2023-01-02T21:26:33.876Z,11.80
2023-01-02T21:29:00.338Z,11.50
2023-01-02T21:31:27.405Z,11.80
2023-01-02T21:33:53.962Z,12.80
2023-01-02T21:36:20.646Z,11.00
2023-01-02T21:38:47.148Z,10.70
2023-01-02T21:41:31.984Z,10.40
2023-01-02T21:43:58.509Z,11.60
2023-01-02T21:46:24.976Z,10.50
2023-01-02T21:48:51.520Z,11.40
2023-01-02T21:51:18.131Z,11.20
2023-01-02T21:53:44.720Z,11.00
2023-01-02T21:56:11.279Z,10.90
2023-01-02T21:58:37.706Z,11.00
2023-01-02T22:01:04.417Z,10.90
2023-01-02T22:03:31.139Z,12.10
2023-01-02T22:05:57.671Z,10.60
2023-01-02T22:08:24.106Z,11.50
2023-01-02T22:10:50.661Z,9.80
2023-01-02T22:13:17.241Z,11.00
2023-01-02T22:15:46.003Z,10.60
2023-01-02T22:18:12.766Z,9.50
2023-01-02T22:20:39.288Z,9.70
2023-01-02T22:23:05.948Z,10.20
2023-01-02T22:25:33.032Z,9.50
2023-01-02T22:28:00.103Z,8.90
2023-01-02T22:30:33.917Z,9.00
2023-01-02T22:33:01.726Z,10.60
2023-01-02T22:35:28.279Z,10.90
2023-01-02T22:37:55.285Z,10.70
2023-01-02T22:40:21.955Z,11.10
2023-01-02T22:43:10.469Z,10.00
2023-01-02T22:45:43.698Z,9.50
2023-01-02T22:48:28.182Z,9.40
2023-01-02T22:50:58.422Z,8.20
2023-01-02T22:53:37.553Z,9.00
2023-01-02T22:56:14.833Z,7.60
2023-01-02T22:58:41.813Z,8.90
2023-01-02T23:01:18.337Z,9.70
2023-01-02T23:03:47.183Z,8.40
2023-01-02T23:06:20.101Z,7.90
2023-01-02T23:08:48.589Z,8.10
2023-01-02T23:11:15.025Z,8.30
2023-01-02T23:13:43.348Z,7.60
2023-01-02T23:16:29.535Z,8.50
2023-01-02T23:19:14.549Z,8.20
2023-01-02T23:22:00.833Z,8.30
2023-01-02T23:24:36.710Z,8.70
2023-01-02T23:27:10.739Z,8.70
2023-01-02T23:29:38.227Z,9.10
2023-01-02T23:32:06.326Z,9.60
2023-01-02T23:34:32.976Z,8.50
2023-01-02T23:37:00.496Z,9.30
2023-01-02T23:39:30.702Z,8.50
2023-01-02T23:41:58.143Z,7.60
2023-01-02T23:44:26.330Z,7.70
2023-01-02T23:46:54.104Z,8.20
2023-01-02T23:49:22.021Z,8.20
2023-01-02T23:51:48.435Z,7.60
2023-01-02T23:54:16.936Z,7.90
2023-01-02T23:56:47.397Z,8.40
2023-01-02T23:59:19.765Z,8.20
